createdAt,value
2017-09-15T10:18:24.130Z,69.00
2017-09-15T10:21:34.730Z,69.30
2017-09-15T10:24:46.827Z,70.40
2017-09-15T10:27:56.753Z,71.70
2017-09-15T10:31:07.166Z,70.80
2017-09-15T10:34:18.370Z,67.90
2017-09-15T10:37:28.736Z,69.90
2017-09-15T10:40:40.541Z,68.60
2017-09-15T10:43:51.167Z,69.20
2017-09-15T10:47:01.598Z,67.70
2017-09-15T10:50:11.767Z,66.70
2017-09-15T10:53:22.548Z,65.70
2017-09-15T10:56:32.693Z,66.60
2017-09-15T10:59:48.160Z,66.80
2017-09-15T11:02:58.618Z,67.00
2017-09-15T11:06:08.634Z,67.60
2017-09-15T11:09:18.717Z,66.80
2017-09-15T11:12:29.105Z,66.20
2017-09-15T11:15:48.982Z,65.40
2017-09-15T11:18:59.680Z,63.60
2017-09-15T11:22:14.247Z,63.50
2017-09-15T11:25:25.544Z,63.50
2017-09-15T11:28:36.401Z,63.40
2017-09-15T11:31:46.458Z,61.20
2017-09-15T11:34:56.935Z,63.20
2017-09-15T11:38:07.457Z,61.20
2017-09-15T11:41:17.425Z,61.00
2017-09-15T11:44:27.679Z,60.90
2017-09-15T11:47:38.135Z,61.40
2017-09-15T11:50:48.011Z,62.00
2017-09-15T11:53:57.942Z,59.50
2017-09-15T11:57:07.689Z,59.20
2017-09-15T12:00:18.007Z,60.60
2017-09-15T12:03:28.941Z,58.40
2017-09-15T12:06:39.157Z,58.10
2017-09-15T12:09:49.368Z,59.00
2017-09-15T12:12:59.588Z,58.00
2017-09-15T12:16:09.437Z,58.90
2017-09-15T12:19:19.876Z,58.50
2017-09-15T12:22:29.984Z,58.70
2017-09-15T12:25:40.394Z,58.80
2017-09-15T12:28:50.570Z,57.60
2017-09-15T12:32:01.928Z,56.50
2017-09-15T12:35:12.520Z,56.50
2017-09-15T12:38:22.438Z,57.90
2017-09-15T12:41:32.768Z,57.40
2017-09-15T12:44:43.105Z,58.60
2017-09-15T12:47:53.446Z,58.90
2017-09-15T12:51:05.612Z,58.20
2017-09-15T12:54:16.365Z,58.70
2017-09-15T12:57:26.396Z,58.50
2017-09-15T13:00:36.576Z,58.70
2017-09-15T13:03:48.125Z,59.80
2017-09-15T13:06:58.171Z,59.80
2017-09-15T13:10:08.296Z,58.80
2017-09-15T13:13:20.730Z,59.00
2017-09-15T13:16:31.430Z,59.40
2017-09-15T13:19:42.631Z,59.40
2017-09-15T13:22:53.293Z,59.80
2017-09-15T13:26:03.930Z,59.80
2017-09-15T13:29:15.172Z,59.40
2017-09-15T13:32:25.225Z,58.40
2017-09-15T13:35:35.417Z,57.90
2017-09-15T13:38:47.535Z,56.90
2017-09-15T13:41:57.699Z,57.50
2017-09-15T13:45:08.929Z,56.30
2017-09-15T13:48:19.624Z,54.90
2017-09-15T13:51:30.406Z,54.10
2017-09-15T13:54:40.627Z,55.10
2017-09-15T13:57:50.723Z,53.60
2017-09-15T14:01:01.206Z,55.10
2017-09-15T14:04:11.317Z,55.40
2017-09-15T14:07:21.453Z,55.40
2017-09-15T14:10:31.553Z,55.00
2017-09-15T14:13:44.569Z,56.00
2017-09-15T14:16:55.141Z,56.20
2017-09-15T14:20:05.509Z,55.40
2017-09-15T14:23:15.625Z,56.10
2017-09-15T14:26:25.893Z,54.00
2017-09-15T14:29:36.185Z,54.50
2017-09-15T14:32:46.546Z,53.60
2017-09-15T14:35:56.790Z,54.40
2017-09-15T14:39:07.407Z,53.20
2017-09-15T14:42:17.677Z,54.20
2017-09-15T14:45:28.729Z,55.30
2017-09-15T14:48:39.232Z,55.30
2017-09-15T14:51:49.409Z,54.60
2017-09-15T14:55:00.540Z,54.10
2017-09-15T14:58:10.849Z,54.30
2017-09-15T15:01:21.146Z,54.30
2017-09-15T15:04:31.242Z,53.80
2017-09-15T15:07:45.497Z,53.70
2017-09-15T15:10:56.590Z,53.20
2017-09-15T15:14:06.941Z,54.40
2017-09-15T15:17:17.291Z,53.10
2017-09-15T15:20:29.507Z,54.60
2017-09-15T15:27:18.341Z,53.60
2017-09-15T15:30:30.614Z,54.70
2017-09-15T15:33:41.287Z,54.40
2017-09-15T15:36:52.517Z,55.30
2017-09-15T15:40:03.011Z,55.20
2017-09-15T15:43:13.820Z,56.00
2017-09-15T15:46:26.137Z,56.10
2017-09-15T15:49:36.583Z,56.00
2017-09-15T15:52:47.300Z,56.30
2017-09-15T15:55:57.690Z,55.80
2017-09-15T15:59:07.938Z,56.40
2017-09-15T16:02:18.925Z,56.80
2017-09-15T16:05:28.993Z,57.50
2017-09-15T16:08:39.957Z,58.00
2017-09-15T16:11:50.656Z,58.00
2017-09-15T16:15:00.647Z,57.60
2017-09-15T16:18:11.335Z,57.30
2017-09-15T16:21:21.315Z,57.60
2017-09-15T16:24:31.628Z,58.80
2017-09-15T16:27:41.399Z,59.00
2017-09-15T16:30:51.688Z,59.30
2017-09-15T16:34:02.721Z,59.60
2017-09-15T16:37:15.263Z,59.60
2017-09-15T16:40:31.459Z,59.60
2017-09-15T16:43:50.530Z,60.20
2017-09-15T16:47:06.736Z,60.60
2017-09-15T16:50:17.786Z,62.20
2017-09-15T16:53:28.324Z,61.20
2017-09-15T16:56:38.708Z,60.10
2017-09-15T16:59:49.262Z,60.60
2017-09-15T17:56:34.845Z,67.70
2017-09-15T17:59:46.613Z,67.70
2017-09-15T18:02:58.141Z,67.70
2017-09-15T18:06:08.951Z,68.70
2017-09-15T18:09:19.905Z,69.50
2017-09-15T18:12:30.116Z,69.50
2017-09-15T18:15:40.438Z,70.30
2017-09-15T18:18:51.424Z,70.00
2017-09-15T18:22:02.502Z,70.80
2017-09-15T18:25:13.192Z,70.80
2017-09-15T18:28:24.920Z,71.20
2017-09-15T18:31:34.961Z,71.40
2017-09-15T18:34:45.997Z,71.60
2017-09-15T18:37:56.585Z,71.60
2017-09-15T18:41:07.101Z,71.80
2017-09-15T18:44:17.415Z,71.30
2017-09-15T18:47:27.416Z,71.30
2017-09-15T18:50:39.273Z,71.60
2017-09-15T18:53:49.250Z,71.80
2017-09-15T18:56:59.903Z,72.00
2017-09-15T19:00:13.629Z,72.00
2017-09-15T19:03:23.833Z,72.00
2017-09-15T19:06:34.190Z,71.70
2017-09-15T19:09:44.459Z,72.70
2017-09-15T19:12:55.487Z,72.70
2017-09-15T19:16:05.542Z,72.70
2017-09-15T19:25:56.910Z,73.00
2017-09-15T19:29:07.717Z,73.00
2017-09-15T19:32:17.305Z,73.90
2017-09-15T19:35:29.736Z,74.20
2017-09-15T19:38:40.117Z,74.00
2017-09-15T19:41:50.534Z,74.10
2017-09-15T19:45:01.178Z,73.70
2017-09-15T19:48:11.579Z,73.70
2017-09-15T19:51:22.135Z,74.10
2017-09-15T19:54:32.150Z,73.80
2017-09-15T19:57:42.306Z,74.20
2017-09-15T20:00:52.853Z,74.70
2017-09-15T20:04:03.216Z,74.60
2017-09-15T20:07:13.393Z,73.70
2017-09-15T20:10:25.160Z,74.20
2017-09-15T20:13:36.206Z,74.80
2017-09-15T20:16:46.073Z,74.70
2017-09-15T20:19:56.492Z,74.80
2017-09-15T20:23:06.472Z,74.70
2017-09-15T20:26:16.880Z,75.10
2017-09-15T20:29:27.583Z,77.30
2017-09-15T20:32:39.587Z,77.20
2017-09-15T20:35:50.390Z,76.70
2017-09-15T20:39:00.655Z,76.60
2017-09-15T20:42:10.452Z,76.20
2017-09-15T20:45:21.211Z,75.50
2017-09-15T20:48:31.495Z,75.50
2017-09-15T20:51:42.438Z,73.90
2017-09-15T20:54:52.628Z,73.90
2017-09-15T20:58:02.980Z,73.60
2017-09-15T21:01:13.628Z,72.30
2017-09-15T21:04:23.903Z,72.30
2017-09-15T21:07:34.446Z,72.80
2017-09-15T21:10:45.099Z,72.90
2017-09-15T21:13:58.535Z,73.20
2017-09-15T21:17:08.634Z,73.30
2017-09-15T21:20:18.991Z,74.50
2017-09-15T21:23:33.052Z,73.80
2017-09-15T21:26:43.559Z,73.90
2017-09-15T21:29:54.933Z,73.50
2017-09-15T21:33:05.106Z,73.80
2017-09-15T21:36:20.228Z,73.80
2017-09-15T21:39:31.207Z,73.90
2017-09-15T21:42:41.274Z,73.90
2017-09-15T21:45:51.360Z,73.30
2017-09-15T21:49:05.190Z,73.10
2017-09-15T21:52:15.856Z,72.80
2017-09-15T21:55:30.776Z,72.30
2017-09-15T21:58:46.754Z,72.30
2017-09-15T22:01:56.603Z,71.50
2017-09-15T22:05:06.787Z,72.40
2017-09-15T22:08:18.859Z,72.10
2017-09-15T22:11:29.299Z,71.80
2017-09-15T22:14:39.324Z,71.60
2017-09-15T22:17:49.590Z,71.50
2017-09-15T22:21:00.122Z,71.90
2017-09-15T22:24:10.467Z,71.70
2017-09-15T22:27:21.167Z,71.70
2017-09-15T22:30:31.670Z,71.40
2017-09-15T22:33:42.182Z,71.90
2017-09-15T22:36:53.296Z,71.90
2017-09-15T22:40:04.011Z,71.80
2017-09-15T22:43:14.297Z,71.80
2017-09-15T22:46:24.186Z,71.70
2017-09-15T22:49:34.283Z,72.10
2017-09-15T22:52:45.301Z,72.00
2017-09-15T22:55:55.458Z,71.90
2017-09-15T22:59:05.483Z,71.80
2017-09-15T23:02:16.075Z,71.80
2017-09-15T23:05:26.166Z,73.20
2017-09-15T23:08:36.231Z,73.80
2017-09-15T23:11:46.657Z,74.70
2017-09-15T23:14:56.453Z,74.00
2017-09-15T23:18:06.917Z,74.30
2017-09-15T23:21:17.195Z,74.70
2017-09-15T23:24:27.893Z,74.10
2017-09-15T23:27:38.659Z,74.80
2017-09-15T23:30:48.942Z,74.70
2017-09-15T23:33:59.047Z,73.40
2017-09-15T23:37:09.806Z,73.40
2017-09-15T23:40:21.098Z,74.10
2017-09-15T23:43:31.092Z,74.10
2017-09-15T23:46:41.403Z,73.50
2017-09-15T23:49:51.351Z,74.40
2017-09-15T23:53:01.550Z,74.30
2017-09-15T23:56:12.305Z,74.80
2017-09-15T23:59:22.845Z,75.10
